Time;durP1;ratioP1;P1;durP2;ratioP2;P2;SDS_P1;SDS_P2;PMS_P1;PMS_P2;Temp;Humidity;BMP_temperature;BMP_pressure;BME280_temperature;BME280_humidity;BME280_pressure;Samples;Min_cycle;Max_cycle;Signal;HPM_P1;HPM_P2
2023/02/12 00:01:19;;;;;;;17.40;11.83;;;;;;;4.86;63.14;99201.47;6290313;28;20256;-35
2023/02/12 00:04:21;;;;;;;16.00;11.87;;;;;;;4.91;63.04;99191.25;6312314;28;20243;-35
2023/02/12 00:07:23;;;;;;;17.63;13.10;;;;;;;4.87;63.18;99189.91;6330884;27;20249;-34
2023/02/12 00:10:25;;;;;;;19.70;12.53;;;;;;;4.92;63.60;99205.25;6325947;27;20234;-34
2023/02/12 00:13:30;;;;;;;18.27;12.97;;;;;;;4.89;64.20;99195.88;6330826;27;20317;-34
2023/02/12 00:16:32;;;;;;;19.20;13.03;;;;;;;4.92;64.04;99197.34;6331874;27;20229;-34
2023/02/12 00:19:34;;;;;;;16.63;11.10;;;;;;;5.00;63.87;99194.69;6331564;27;20233;-34
2023/02/12 00:22:36;;;;;;;17.90;12.17;;;;;;;4.78;63.98;99176.91;6326797;28;20249;-35
2023/02/12 00:25:41;;;;;;;15.27;11.23;;;;;;;5.06;63.80;99211.69;6327294;28;20370;-35
2023/02/12 00:28:43;;;;;;;18.77;12.70;;;;;;;5.04;64.06;99225.06;6328185;28;20241;-35
2023/02/12 00:31:46;;;;;;;16.97;13.23;;;;;;;5.01;64.10;99222.75;6327281;28;20233;-35
2023/02/12 00:34:48;;;;;;;17.50;12.70;;;;;;;4.99;64.20;99218.63;6327604;28;20603;-35
2023/02/12 00:37:50;;;;;;;15.90;12.07;;;;;;;4.99;64.10;99218.63;6308749;28;20286;-35
2023/02/12 00:40:53;;;;;;;17.67;12.30;;;;;;;4.94;64.36;99227.06;6329414;28;20725;-35
2023/02/12 00:43:55;;;;;;;19.07;13.40;;;;;;;4.89;64.37;99224.09;6327437;28;20220;-35
2023/02/12 00:46:57;;;;;;;18.33;13.43;;;;;;;4.93;64.46;99222.78;6328424;28;20226;-34
2023/02/12 00:49:59;;;;;;;15.60;11.97;;;;;;;4.99;64.38;99208.91;6327547;28;20231;-34
2023/02/12 00:53:01;;;;;;;18.40;12.50;;;;;;;4.98;64.29;99201.16;6326354;28;20820;-35
2023/02/12 00:56:03;;;;;;;15.53;11.63;;;;;;;4.99;64.69;99218.63;6325964;28;20226;-35
2023/02/12 00:59:05;;;;;;;15.47;11.23;;;;;;;5.02;64.55;99213.81;6327327;28;20277;-35
2023/02/12 01:02:09;;;;;;;18.23;13.27;;;;;;;5.01;64.54;99206.06;6306006;28;20758;-35
2023/02/12 01:05:11;;;;;;;14.50;11.53;;;;;;;5.06;64.46;99215.13;6316844;28;20748;-34
2023/02/12 01:08:15;;;;;;;15.87;12.00;;;;;;;5.07;64.37;99218.59;6330001;28;20239;-34
2023/02/12 01:11:18;;;;;;;17.70;12.80;;;;;;;5.00;64.34;99217.63;6329893;28;20299;-35
2023/02/12 01:14:20;;;;;;;17.63;12.30;;;;;;;5.01;64.38;99232.50;6328920;28;20232;-35
2023/02/12 01:17:22;;;;;;;18.37;12.43;;;;;;;5.00;64.86;99244.06;6322475;28;20734;-35
2023/02/12 01:20:25;;;;;;;16.00;11.47;;;;;;;5.03;64.67;99225.25;6304005;28;20240;-35
2023/02/12 01:23:27;;;;;;;19.87;12.73;;;;;;;4.99;64.94;99239.78;6329475;28;20251;-35
2023/02/12 01:26:30;;;;;;;16.73;11.33;;;;;;;4.74;64.90;99197.56;6328006;28;20231;-35
2023/02/12 01:29:32;;;;;;;16.27;12.17;;;;;;;5.05;64.88;99254.94;6325912;28;20240;-35
2023/02/12 01:32:34;;;;;;;17.47;11.77;;;;;;;5.05;64.87;99254.94;6329789;28;20326;-35
2023/02/12 01:35:37;;;;;;;15.87;11.57;;;;;;;4.96;64.57;99234.81;6306548;28;20225;-35
2023/02/12 01:38:40;;;;;;;14.63;11.37;;;;;;;5.05;65.08;99250.47;6326469;28;20729;-35
2023/02/12 01:41:44;;;;;;;19.07;12.83;;;;;;;5.05;64.78;99257.56;6323917;28;20323;-35
2023/02/12 01:45:13;;;;;;;17.77;12.40;;;;;;;5.05;64.87;99276.06;6329357;28;20245;-35
2023/02/12 01:48:18;;;;;;;20.70;12.37;;;;;;;5.05;65.10;99284.81;6306040;28;20378;-36
2023/02/12 01:51:21;;;;;;;18.83;12.67;;;;;;;5.03;65.14;99293.91;6314543;28;20225;-35
2023/02/12 01:54:25;;;;;;;20.23;14.10;;;;;;;5.01;64.98;99288.78;6326484;28;20236;-35
2023/02/12 01:57:31;;;;;;;17.00;12.63;;;;;;;5.00;64.92;99289.78;6308312;28;20312;-35
2023/02/12 02:00:33;;;;;;;19.50;13.53;;;;;;;4.98;65.31;99286.47;6306757;28;20224;-37
2023/02/12 02:03:38;;;;;;;18.03;12.60;;;;;;;4.94;65.91;99284.34;6337628;27;20322;-35
2023/02/12 02:06:51;;;;;;;20.27;13.23;;;;;;;4.85;67.11;99288.78;6327819;27;20307;-35
2023/02/12 02:09:54;;;;;;;18.90;14.63;;;;;;;4.75;68.05;99273.13;6329089;27;20222;-35
2023/02/12 02:16:25;;;;;;;20.87;14.70;;;;;;;4.62;68.63;99299.16;6324009;27;20235;-36
2023/02/12 02:19:47;;;;;;;21.00;14.70;;;;;;;4.60;68.21;99293.25;6326939;27;20244;-35
2023/02/12 02:22:52;;;;;;;19.70;13.73;;;;;;;4.59;68.27;99294.22;6330237;27;20506;-35
2023/02/12 02:26:45;;;;;;;20.27;13.77;;;;;;;4.61;68.32;99286.97;6326764;28;20233;-35
2023/02/12 02:29:47;;;;;;;17.37;13.37;;;;;;;4.59;68.85;99284.50;6250754;28;20236;-36
2023/02/12 02:33:16;;;;;;;24.37;15.13;;;;;;;4.54;69.23;99285.97;6252443;28;20225;-35
2023/02/12 02:36:43;;;;;;;20.27;14.43;;;;;;;4.48;69.75;99283.97;6244279;28;20276;-36
2023/02/12 02:40:11;;;;;;;18.97;13.50;;;;;;;4.44;70.13;99293.22;6251940;28;20237;-36
2023/02/12 02:43:28;;;;;;;19.77;13.87;;;;;;;4.26;69.41;99259.88;6252120;28;20726;-36
2023/02/12 02:46:37;;;;;;;21.17;14.30;;;;;;;4.58;69.38;99300.47;6245981;28;20237;-35
2023/02/12 02:49:53;;;;;;;18.17;12.90;;;;;;;4.66;69.43;99295.22;6248018;28;20279;-35
2023/02/12 02:53:03;;;;;;;19.73;14.20;;;;;;;4.62;70.16;99301.81;6252161;28;20257;-35
2023/02/12 02:56:11;;;;;;;20.37;13.83;;;;;;;4.31;70.60;99260.22;6251690;28;20729;-35
2023/02/12 02:59:22;;;;;;;18.43;13.07;;;;;;;4.28;70.30;99262.34;6250333;28;20236;-35
2023/02/12 03:02:30;;;;;;;19.20;13.50;;;;;;;4.56;71.28;99324.41;6249349;28;20784;-35
2023/02/12 03:05:38;;;;;;;18.37;12.20;;;;;;;4.55;71.64;99314.84;6294871;28;20234;-35
2023/02/12 03:08:52;;;;;;;18.37;13.20;;;;;;;4.32;71.93;99295.34;6314640;27;20231;-35
2023/02/12 03:11:58;;;;;;;17.23;11.50;;;;;;;4.49;72.15;99326.06;6329348;27;20728;-35
2023/02/12 03:15:12;;;;;;;21.43;13.77;;;;;;;4.46;72.21;99325.53;6329613;27;20323;-35
2023/02/12 03:18:25;;;;;;;21.53;14.87;;;;;;;3.96;72.11;99265.75;6330519;27;20738;-36
2023/02/12 03:21:36;;;;;;;18.60;13.83;;;;;;;4.24;72.30;99314.63;6303338;28;20225;-36
2023/02/12 03:24:50;;;;;;;20.47;14.90;;;;;;;4.36;71.99;99339.69;6335657;27;20259;-35
2023/02/12 03:28:01;;;;;;;19.47;13.40;;;;;;;4.41;71.50;99336.56;6331707;27;20220;-35
2023/02/12 03:31:07;;;;;;;25.10;14.73;;;;;;;4.46;71.63;99334.28;6329093;27;20371;-36
2023/02/12 03:34:15;;;;;;;19.43;14.47;;;;;;;4.43;71.60;99339.88;6329287;27;20233;-36
2023/02/12 03:37:28;;;;;;;17.83;13.43;;;;;;;4.46;71.45;99357.22;6307913;28;20225;-36
2023/02/12 03:40:37;;;;;;;19.63;14.77;;;;;;;4.44;72.18;99361.84;6336202;27;20267;-35
2023/02/12 03:43:53;;;;;;;20.93;15.53;;;;;;;4.36;72.63;99352.06;6328859;27;20230;-36
2023/02/12 03:47:11;;;;;;;20.17;13.93;;;;;;;4.25;72.79;99361.09;6310721;28;20234;-35
2023/02/12 03:50:21;;;;;;;19.87;14.77;;;;;;;4.23;73.04;99364.88;6325575;27;20239;-35
2023/02/12 03:53:27;;;;;;;22.13;15.47;;;;;;;4.24;73.40;99362.09;6329935;27;20244;-36
2023/02/12 03:56:37;;;;;;;22.63;15.87;;;;;;;4.24;73.20;99370.00;6330615;27;20233;-36
2023/02/12 03:59:40;;;;;;;21.47;14.10;;;;;;;4.26;73.34;99370.66;6326275;27;20234;-36
2023/02/12 04:02:43;;;;;;;19.90;15.00;;;;;;;4.25;73.19;99378.75;6329282;28;20290;-36
2023/02/12 04:05:45;;;;;;;24.20;15.60;;;;;;;4.19;73.29;99380.22;6311033;28;20249;-36
2023/02/12 04:08:47;;;;;;;21.87;14.80;;;;;;;4.16;73.81;99379.69;6329705;27;20232;-36
2023/02/12 04:12:27;;;;;;;21.47;14.67;;;;;;;4.15;73.50;99384.16;6329302;27;20233;-36
2023/02/12 04:15:35;;;;;;;21.50;14.70;;;;;;;4.14;73.78;99393.06;6332838;27;20226;-36
2023/02/12 04:18:44;;;;;;;14.93;11.43;;;;;;;4.22;73.55;99392.25;6329691;27;20354;-36
2023/02/12 04:22:09;;;;;;;19.57;13.67;;;;;;;4.29;73.40;99404.66;6334119;27;20692;-36
2023/02/12 04:25:38;;;;;;;15.30;11.47;;;;;;;4.32;72.88;99401.69;6321585;27;20235;-36
2023/02/12 04:29:25;;;;;;;18.60;12.73;;;;;;;4.32;72.77;99399.03;6327406;27;20237;-36
2023/02/12 04:32:49;;;;;;;17.30;11.00;;;;;;;4.32;73.01;99406.97;6323210;28;20221;-36
2023/02/12 04:35:59;;;;;;;15.43;11.53;;;;;;;4.32;72.75;99404.31;6320740;27;20234;-36
2023/02/12 04:39:10;;;;;;;20.00;14.10;;;;;;;4.12;73.29;99389.72;6328278;28;20370;-35
2023/02/12 04:42:12;;;;;;;19.03;14.53;;;;;;;4.31;73.16;99412.41;6327705;28;20221;-36
2023/02/12 04:45:21;;;;;;;17.83;13.20;;;;;;;4.37;73.19;99427.59;6328432;28;20241;-36
2023/02/12 04:48:23;;;;;;;22.67;15.00;;;;;;;4.30;73.22;99422.13;6333407;28;20312;-36
2023/02/12 04:51:25;;;;;;;21.40;15.93;;;;;;;4.24;73.75;99424.59;6330184;28;20230;-36
2023/02/12 04:54:27;;;;;;;23.97;16.40;;;;;;;4.25;73.96;99432.34;6332867;28;20226;-35
2023/02/12 04:57:29;;;;;;;25.13;15.97;;;;;;;4.27;73.75;99430.34;6327539;28;20826;-36
2023/02/12 05:00:31;;;;;;;21.77;14.53;;;;;;;4.08;73.75;99407.69;6333500;28;20232;-36
2023/02/12 05:03:33;;;;;;;21.97;15.27;;;;;;;4.32;73.79;99449.16;6327618;28;20221;-35
2023/02/12 05:06:36;;;;;;;22.10;15.73;;;;;;;4.33;73.68;99450.81;6305013;28;20218;-36
2023/02/12 05:09:38;;;;;;;21.73;15.93;;;;;;;4.37;73.75;99451.34;6324508;28;20229;-36
2023/02/12 05:12:40;;;;;;;21.63;15.57;;;;;;;4.35;73.60;99453.31;6329716;28;20232;-36
2023/02/12 05:15:42;;;;;;;22.63;15.60;;;;;;;4.40;73.69;99459.78;6329923;28;20229;-35
2023/02/12 05:18:45;;;;;;;19.87;14.47;;;;;;;4.14;73.29;99416.78;6327988;28;20228;-36
2023/02/12 05:21:49;;;;;;;23.97;16.00;;;;;;;4.36;73.63;99454.97;6327013;28;20319;-36
2023/02/12 05:24:51;;;;;;;21.90;16.30;;;;;;;4.38;73.40;99461.75;6328739;28;20240;-34
2023/02/12 05:27:55;;;;;;;20.27;15.17;;;;;;;4.32;73.94;99459.72;6308825;28;20225;-35
2023/02/12 05:31:02;;;;;;;24.87;15.93;;;;;;;4.09;73.73;99434.91;6327455;28;20605;-36
2023/02/12 05:34:06;;;;;;;20.57;14.73;;;;;;;4.37;73.55;99470.63;6335479;27;20776;-35
2023/02/12 05:37:08;;;;;;;20.30;14.60;;;;;;;4.43;73.55;99482.34;6312829;28;20224;-36
2023/02/12 05:40:10;;;;;;;21.83;15.07;;;;;;;4.39;73.43;99481.03;6331884;27;20225;-36
2023/02/12 05:43:12;;;;;;;20.60;14.63;;;;;;;4.46;73.36;99484.69;6330864;27;20229;-34
2023/02/12 05:46:14;;;;;;;21.43;14.80;;;;;;;4.44;73.37;99497.22;6305396;28;20249;-34
2023/02/12 05:49:17;;;;;;;22.30;15.10;;;;;;;4.47;73.03;99494.25;6331162;28;20744;-35
2023/02/12 05:52:19;;;;;;;18.23;13.40;;;;;;;4.52;72.79;99513.09;6331309;27;20237;-34
2023/02/12 05:55:20;;;;;;;18.80;13.57;;;;;;;4.56;72.57;99506.50;6331930;27;20236;-35
2023/02/12 05:58:22;;;;;;;19.00;14.17;;;;;;;4.61;72.43;99514.78;6330786;27;20241;-35
2023/02/12 06:01:34;;;;;;;18.63;13.83;;;;;;;4.62;72.56;99521.69;6331865;27;20229;-35
2023/02/12 06:04:36;;;;;;;19.27;13.67;;;;;;;4.68;72.46;99524.69;6330706;27;20235;-35
2023/02/12 06:07:38;;;;;;;19.83;14.30;;;;;;;4.58;72.77;99533.59;6332750;27;20643;-35
2023/02/12 06:10:40;;;;;;;20.50;14.27;;;;;;;4.56;72.85;99524.16;6331979;27;20712;-35
2023/02/12 06:13:43;;;;;;;19.27;14.50;;;;;;;4.55;72.87;99530.44;6309906;28;20313;-35
2023/02/12 06:16:48;;;;;;;18.23;13.50;;;;;;;4.60;72.65;99530.78;6329043;28;20232;-35
2023/02/12 06:19:49;;;;;;;18.23;13.43;;;;;;;4.68;72.62;99532.63;6331009;28;20314;-35
2023/02/12 06:22:51;;;;;;;16.40;11.90;;;;;;;4.72;72.28;99544.53;6333966;27;20233;-35
2023/02/12 06:25:56;;;;;;;18.27;12.27;;;;;;;4.73;72.15;99557.59;6333213;27;20240;-35
2023/02/12 06:29:00;;;;;;;19.20;13.17;;;;;;;4.50;72.30;99530.06;6329131;27;20739;-35
2023/02/12 06:32:02;;;;;;;24.63;16.70;;;;;;;4.56;72.72;99559.28;6332703;27;20238;-35
2023/02/12 06:35:05;;;;;;;22.70;16.03;;;;;;;4.57;72.55;99566.22;6329996;28;20229;-37
2023/02/12 06:38:08;;;;;;;20.90;14.43;;;;;;;4.59;72.54;99569.56;6330255;28;20730;-35
2023/02/12 06:41:10;;;;;;;22.60;14.83;;;;;;;4.57;72.77;99563.59;6329560;28;20705;-34
2023/02/12 06:44:12;;;;;;;21.00;15.07;;;;;;;4.45;72.51;99540.28;6329016;27;20237;-35
2023/02/12 06:47:14;;;;;;;21.27;15.47;;;;;;;4.61;72.49;99567.56;6327495;27;20226;-35
2023/02/12 06:50:16;;;;;;;20.87;15.10;;;;;;;4.57;72.75;99565.41;6330414;27;20321;-35
2023/02/12 06:53:18;;;;;;;23.00;15.30;;;;;;;4.57;72.66;99568.03;6330487;27;20237;-35
2023/02/12 06:56:22;;;;;;;19.93;14.50;;;;;;;4.57;72.75;99575.97;6330183;27;20613;-35
2023/02/12 06:59:24;;;;;;;20.10;14.40;;;;;;;4.60;72.65;99583.56;6329622;27;20218;-35
2023/02/12 07:02:26;;;;;;;20.93;15.47;;;;;;;4.45;72.55;99564.03;6329592;27;20312;-35
2023/02/12 07:05:28;;;;;;;20.80;15.37;;;;;;;4.60;72.82;99587.03;6328496;28;20648;-35
2023/02/12 07:08:31;;;;;;;16.87;12.53;;;;;;;4.69;72.62;99595.00;6328952;27;20234;-36
2023/02/12 07:11:35;;;;;;;19.17;13.17;;;;;;;4.69;72.32;99589.72;6331325;27;20259;-35
2023/02/12 07:14:39;;;;;;;18.13;13.43;;;;;;;4.69;72.63;99587.09;6333638;27;20217;-35
2023/02/12 07:17:41;;;;;;;20.10;14.60;;;;;;;4.69;72.60;99587.09;6336008;27;20388;-35
2023/02/12 07:20:43;;;;;;;19.67;14.20;;;;;;;4.81;72.19;99585.81;6335635;27;20776;-35
2023/02/12 07:23:47;;;;;;;21.37;15.07;;;;;;;4.84;71.74;99586.34;6330800;27;20320;-35
2023/02/12 07:26:52;;;;;;;20.73;14.57;;;;;;;4.79;72.18;99593.09;6332272;27;20225;-35
2023/02/12 07:29:54;;;;;;;22.00;14.40;;;;;;;4.59;71.95;99563.44;6328231;28;20243;-35
2023/02/12 07:32:56;;;;;;;19.17;13.80;;;;;;;4.83;72.10;99594.44;6318793;28;20231;-35
2023/02/12 07:36:03;;;;;;;20.50;14.07;;;;;;;4.86;72.06;99605.47;6330496;27;20231;-35
2023/02/12 07:39:05;;;;;;;21.43;14.67;;;;;;;4.92;71.70;99610.13;6328442;28;20234;-35
2023/02/12 07:42:07;;;;;;;21.13;14.63;;;;;;;5.02;71.41;99611.81;6329037;28;20228;-35
2023/02/12 07:45:10;;;;;;;20.97;14.60;;;;;;;4.98;71.67;99615.78;6329846;27;20229;-35
2023/02/12 07:48:12;;;;;;;26.30;16.20;;;;;;;4.70;72.01;99586.94;6333167;27;20235;-35
2023/02/12 07:51:18;;;;;;;21.07;15.27;;;;;;;4.87;72.38;99622.97;6332016;27;20232;-35
2023/02/12 07:54:20;;;;;;;19.03;15.27;;;;;;;4.78;73.43;99621.31;6306651;28;20605;-35
2023/02/12 07:57:22;;;;;;;23.97;16.17;;;;;;;4.81;73.64;99626.25;6326822;28;20228;-35
2023/02/12 08:00:24;;;;;;;21.67;15.00;;;;;;;4.68;73.74;99610.03;6327400;28;20249;-36
2023/02/12 08:03:28;;;;;;;22.50;15.53;;;;;;;4.79;73.97;99622.13;6328036;27;20518;-35
2023/02/12 08:06:32;;;;;;;22.40;15.20;;;;;;;4.85;74.00;99627.59;6329165;28;20251;-35
2023/02/12 08:09:33;;;;;;;23.27;15.57;;;;;;;4.64;73.75;99598.94;6328754;27;20239;-35
2023/02/12 08:12:35;;;;;;;18.67;14.30;;;;;;;5.03;73.48;99629.34;6328124;27;20234;-35
2023/02/12 08:15:37;;;;;;;20.43;15.23;;;;;;;5.10;73.09;99628.53;6324686;27;20245;-35
2023/02/12 08:18:40;;;;;;;22.03;15.80;;;;;;;4.87;72.80;99590.47;6329846;27;20257;-35
2023/02/12 08:21:42;;;;;;;20.43;14.93;;;;;;;5.14;72.78;99636.97;6330620;27;20347;-35
2023/02/12 08:24:44;;;;;;;20.97;15.20;;;;;;;4.98;72.61;99605.22;6327320;28;20238;-35
2023/02/12 08:27:46;;;;;;;20.77;15.20;;;;;;;5.17;72.86;99645.44;6329291;27;20332;-35
2023/02/12 08:30:48;;;;;;;20.73;15.07;;;;;;;5.24;72.38;99639.50;6328847;27;20267;-35
2023/02/12 08:33:52;;;;;;;21.60;14.87;;;;;;;5.36;71.81;99648.78;6331709;27;20321;-35
2023/02/12 08:36:56;;;;;;;21.63;15.00;;;;;;;5.11;71.80;99589.75;6330308;27;20856;-35
2023/02/12 08:39:58;;;;;;;18.83;13.90;;;;;;;5.79;71.23;99654.88;6327529;27;20258;-35
2023/02/12 08:43:00;;;;;;;21.00;14.60;;;;;;;5.98;70.76;99645.84;6331925;28;20665;-35
2023/02/12 08:46:18;;;;;;;18.60;13.67;;;;;;;5.86;69.70;99655.84;6324946;28;20224;-35
2023/02/12 08:49:24;;;;;;;17.13;13.27;;;;;;;5.64;69.89;99626.41;6315324;28;20228;-35
2023/02/12 08:52:26;;;;;;;17.90;12.87;;;;;;;5.90;69.54;99668.59;6325634;28;20242;-35
2023/02/12 08:55:28;;;;;;;19.97;14.27;;;;;;;5.84;69.36;99637.50;6307990;28;20235;-35
2023/02/12 08:58:30;;;;;;;21.33;14.80;;;;;;;6.23;68.73;99667.84;6325130;28;20741;-35
2023/02/12 09:01:34;;;;;;;21.70;15.17;;;;;;;6.40;67.92;99659.75;6326661;28;20728;-35
2023/02/12 09:04:36;;;;;;;20.10;14.83;;;;;;;6.40;67.38;99666.84;6329045;28;20235;-35
2023/02/12 09:07:38;;;;;;;19.47;14.57;;;;;;;6.33;68.80;99669.34;6331441;27;20744;-35
2023/02/12 09:10:41;;;;;;;19.87;14.57;;;;;;;6.41;67.30;99677.28;6327452;27;20239;-35
2023/02/12 09:13:45;;;;;;;18.93;13.47;;;;;;;6.51;67.62;99676.28;6306696;27;20742;-35
2023/02/12 09:16:47;;;;;;;19.30;14.20;;;;;;;6.49;67.21;99686.22;6333538;27;20589;-35
2023/02/12 09:19:49;;;;;;;19.27;14.43;;;;;;;6.38;67.10;99688.19;6331728;28;20368;-35
2023/02/12 09:22:52;;;;;;;22.27;13.80;;;;;;;6.16;67.79;99687.03;6319811;27;20707;-35
2023/02/12 09:25:54;;;;;;;20.83;13.80;;;;;;;6.09;68.09;99693.13;6333898;27;20604;-35
2023/02/12 09:28:57;;;;;;;19.80;14.27;;;;;;;5.93;67.91;99664.84;6331498;27;20222;-36
2023/02/12 09:32:01;;;;;;;19.47;14.13;;;;;;;6.14;67.52;99665.19;6315573;28;20243;-34
2023/02/12 09:35:04;;;;;;;19.60;14.23;;;;;;;6.13;67.52;99649.47;6334504;27;20236;-35
2023/02/12 09:38:07;;;;;;;19.57;14.13;;;;;;;6.37;67.24;99673.31;6330146;27;20704;-35
2023/02/12 09:41:30;;;;;;;17.70;13.00;;;;;;;6.09;66.74;99642.84;6328131;27;20528;-35
2023/02/12 09:44:53;;;;;;;20.50;14.90;;;;;;;6.37;67.26;99677.78;6330336;27;20242;-35
2023/02/12 09:47:56;;;;;;;18.57;13.63;;;;;;;6.65;66.10;99691.47;6331384;27;20285;-35
2023/02/12 09:51:02;;;;;;;18.60;13.50;;;;;;;6.64;66.21;99687.19;6333123;27;20517;-35
2023/02/12 09:54:17;;;;;;;18.27;12.87;;;;;;;7.55;63.89;99686.78;6332537;27;20713;-35
2023/02/12 09:57:33;;;;;;;16.60;12.27;;;;;;;9.85;56.63;99684.53;6330828;27;20661;-35
2023/02/12 10:00:36;;;;;;;14.60;10.90;;;;;;;11.62;52.32;99677.28;6334388;27;20344;-36
2023/02/12 10:03:38;;;;;;;15.37;10.23;;;;;;;12.40;48.98;99683.06;6330289;28;20239;-36
2023/02/12 10:06:53;;;;;;;14.87;10.63;;;;;;;12.85;47.08;99665.38;6333227;27;20746;-36
2023/02/12 10:09:55;;;;;;;12.23;9.40;;;;;;;13.06;45.68;99675.03;6328391;27;20234;-36
2023/02/12 10:13:10;;;;;;;10.77;8.57;;;;;;;13.25;45.10;99662.69;6330449;27;20235;-36
2023/02/12 10:16:35;;;;;;;13.13;9.37;;;;;;;12.94;45.08;99690.06;6334200;27;20235;-36
2023/02/12 10:20:12;;;;;;;10.77;8.57;;;;;;;13.53;44.00;99683.78;6318806;27;20226;-36
2023/02/12 10:23:33;;;;;;;13.83;10.07;;;;;;;13.24;44.62;99692.31;6329676;27;20722;-36
2023/02/12 10:26:40;;;;;;;13.17;9.97;;;;;;;11.83;47.83;99693.25;6328417;27;20607;-36
2023/02/12 10:29:46;;;;;;;14.07;10.57;;;;;;;11.25;49.92;99692.72;6331924;27;20251;-36
2023/02/12 10:32:53;;;;;;;13.17;9.77;;;;;;;11.34;49.72;99698.75;6330970;27;20660;-36
2023/02/12 10:36:10;;;;;;;13.87;9.97;;;;;;;10.62;51.32;99704.38;6330870;27;20270;-35
2023/02/12 10:39:24;;;;;;;14.57;10.70;;;;;;;9.66;54.23;99698.44;6320802;27;20580;-36
2023/02/12 10:42:47;;;;;;;14.13;9.77;;;;;;;9.05;56.15;99703.94;6329185;28;20233;-35
2023/02/12 10:45:50;;;;;;;13.77;10.17;;;;;;;8.96;56.78;99705.03;6329199;28;20316;-36
2023/02/12 10:48:57;;;;;;;15.00;10.20;;;;;;;8.73;58.01;99697.13;6333836;27;20238;-35
2023/02/12 10:52:08;;;;;;;14.43;9.87;;;;;;;8.68;58.05;99694.19;6329372;27;20367;-36
2023/02/12 10:55:40;;;;;;;13.03;9.63;;;;;;;8.67;57.85;99701.34;6334256;27;20235;-36
2023/02/12 10:58:53;;;;;;;14.00;10.50;;;;;;;8.97;57.19;99704.88;6288788;28;20245;-36
2023/02/12 11:01:56;;;;;;;13.40;9.67;;;;;;;8.42;58.26;99699.88;6326196;27;20233;-36
2023/02/12 11:05:14;;;;;;;14.17;10.13;;;;;;;8.09;59.42;99696.63;6328673;27;20774;-36
2023/02/12 11:08:36;;;;;;;14.37;10.27;;;;;;;8.14;59.39;99700.38;6325919;27;20229;-36
2023/02/12 11:11:39;;;;;;;13.63;9.87;;;;;;;8.12;59.53;99685.63;6329318;27;20229;-36
2023/02/12 11:14:48;;;;;;;15.33;9.97;;;;;;;8.05;59.61;99690.81;6310812;28;20230;-36
2023/02/12 11:18:00;;;;;;;13.57;9.97;;;;;;;7.86;60.00;99680.66;6330039;27;20600;-36
2023/02/12 11:21:11;;;;;;;15.10;9.63;;;;;;;7.94;60.15;99678.78;6329615;27;20635;-36
2023/02/12 11:24:38;;;;;;;15.37;9.97;;;;;;;7.88;60.20;99662.72;6306210;27;20566;-36
2023/02/12 11:27:40;;;;;;;16.60;10.60;;;;;;;7.81;60.29;99681.19;6326876;27;20330;-36
2023/02/12 11:30:52;;;;;;;15.73;10.47;;;;;;;7.49;60.62;99666.28;6328067;28;20243;-37
2023/02/12 11:34:20;;;;;;;15.00;9.03;;;;;;;7.56;60.92;99677.81;6310607;28;20228;-36
2023/02/12 11:37:23;;;;;;;11.73;8.60;;;;;;;7.61;60.77;99674.66;6316941;28;20240;-36
2023/02/12 11:40:28;;;;;;;12.13;9.23;;;;;;;7.71;60.73;99677.91;6327532;27;20307;-36
2023/02/12 11:43:33;;;;;;;11.37;8.87;;;;;;;7.70;60.46;99676.28;6323534;28;20327;-36
2023/02/12 11:46:35;;;;;;;10.63;7.97;;;;;;;7.70;60.28;99685.06;6329641;28;20604;-36
2023/02/12 11:49:48;;;;;;;13.17;8.40;;;;;;;7.52;60.49;99670.38;6328486;27;20662;-36
2023/02/12 11:52:55;;;;;;;12.17;7.87;;;;;;;7.54;60.95;99692.25;6330085;27;20229;-36
2023/02/12 11:56:06;;;;;;;11.17;7.73;;;;;;;7.57;61.08;99689.25;6326324;27;20592;-36
2023/02/12 11:59:20;;;;;;;13.77;8.90;;;;;;;7.48;61.35;99678.69;6317504;27;20229;-36
2023/02/12 12:02:38;;;;;;;9.93;6.90;;;;;;;7.67;60.91;99687.22;6330843;27;20220;-36
2023/02/12 12:05:53;;;;;;;11.83;8.30;;;;;;;7.68;59.97;99667.66;6329168;27;20776;-36
2023/02/12 12:09:26;;;;;;;10.37;7.13;;;;;;;7.59;60.81;99677.50;6327030;27;20741;-36
2023/02/12 12:12:40;;;;;;;11.33;7.87;;;;;;;7.47;61.02;99670.91;6324914;27;20236;-36
2023/02/12 12:23:34;;;;;;;10.53;8.20;;;;;;;7.20;61.30;99682.78;6250848;28;20722;-36
2023/02/12 12:26:40;;;;;;;13.47;8.43;;;;;;;7.37;61.05;99668.47;6180408;28;20324;-36
2023/02/12 12:29:57;;;;;;;12.57;8.67;;;;;;;7.45;60.71;99667.59;6162353;28;20723;-36
2023/02/12 12:33:06;;;;;;;10.53;8.23;;;;;;;7.54;60.81;99663.94;6199923;28;20599;-36
2023/02/12 12:36:32;;;;;;;17.93;10.03;;;;;;;7.61;60.71;99658.75;6178451;28;20225;-36
2023/02/12 12:39:40;;;;;;;15.60;10.37;;;;;;;7.59;60.82;99661.56;6199977;28;20229;-36
2023/02/12 12:42:45;;;;;;;18.77;12.20;;;;;;;7.56;61.00;99659.25;6174122;28;20632;-36
2023/02/12 12:46:20;;;;;;;15.10;10.53;;;;;;;7.43;61.50;99662.47;6197569;28;20236;-36
2023/02/12 12:49:23;;;;;;;14.77;10.40;;;;;;;7.47;61.26;99660.28;6154713;28;20241;-36
2023/02/12 12:53:05;;;;;;;17.73;11.20;;;;;;;7.66;60.82;99651.91;6195042;28;20861;-36
2023/02/12 12:56:25;;;;;;;13.87;9.60;;;;;;;7.61;61.02;99656.91;6194120;28;20244;-36
2023/02/12 12:59:52;;;;;;;14.70;10.60;;;;;;;7.56;60.87;99656.59;6240896;28;20257;-36
2023/02/12 13:03:15;;;;;;;12.43;9.23;;;;;;;7.49;60.95;99659.13;6295615;28;20807;-36
2023/02/12 13:06:29;;;;;;;13.07;9.57;;;;;;;7.36;61.15;99658.84;6325807;28;20248;-36
2023/02/12 13:09:45;;;;;;;14.20;9.60;;;;;;;7.49;61.21;99660.97;6325520;28;20220;-36
2023/02/12 13:13:02;;;;;;;14.30;10.13;;;;;;;7.34;61.38;99660.88;6344257;28;20240;-36
2023/02/12 13:16:42;;;;;;;13.73;10.00;;;;;;;7.41;61.38;99671.59;6351927;28;20439;-36
2023/02/12 13:19:59;;;;;;;13.17;9.93;;;;;;;7.34;61.90;99666.16;6350430;28;20228;-36
2023/02/12 13:23:13;;;;;;;14.80;10.30;;;;;;;7.21;62.39;99671.19;6336802;28;20348;-36
2023/02/12 13:26:34;;;;;;;15.60;10.73;;;;;;;7.09;62.78;99670.69;6341696;28;20722;-36
2023/02/12 13:29:46;;;;;;;15.53;11.60;;;;;;;6.92;63.22;99672.59;6345559;28;20243;-36
2023/02/12 13:33:21;;;;;;;16.10;10.73;;;;;;;6.93;63.36;99670.75;6338200;28;20236;-36
2023/02/12 13:36:24;;;;;;;15.17;10.80;;;;;;;6.91;63.77;99667.47;6342722;28;20640;-36
2023/02/12 13:39:36;;;;;;;17.17;10.60;;;;;;;6.76;63.59;99638.19;6339394;28;20233;-36
2023/02/12 13:43:04;;;;;;;14.77;10.97;;;;;;;6.89;63.43;99662.31;6334426;28;20225;-36
2023/02/12 13:46:44;;;;;;;15.90;10.37;;;;;;;6.98;63.40;99655.16;6351163;28;20235;-36
2023/02/12 13:50:00;;;;;;;14.03;9.90;;;;;;;7.04;62.76;99648.38;6350031;28;20227;-36
2023/02/12 13:53:12;;;;;;;12.50;9.40;;;;;;;6.78;62.84;99614.16;6344253;27;20240;-36
2023/02/12 13:56:36;;;;;;;14.83;9.80;;;;;;;7.03;62.89;99654.66;6334577;27;20702;-36
2023/02/12 13:59:41;;;;;;;12.60;8.33;;;;;;;7.05;62.42;99648.22;6335708;27;20408;-36
2023/02/12 14:02:48;;;;;;;12.97;9.47;;;;;;;7.00;62.60;99653.19;6353549;27;20220;-36
2023/02/12 14:06:31;;;;;;;13.73;9.67;;;;;;;6.93;62.68;99658.31;6315311;27;20364;-36
2023/02/12 14:09:45;;;;;;;13.87;9.93;;;;;;;6.89;62.62;99656.19;6251901;28;20278;-35
2023/02/12 14:12:49;;;;;;;14.00;9.00;;;;;;;6.90;62.92;99647.25;6252100;28;20332;-36
2023/02/12 14:15:56;;;;;;;10.90;7.63;;;;;;;7.01;62.73;99646.06;6227189;28;20235;-35
2023/02/12 14:19:36;;;;;;;12.27;8.23;;;;;;;7.01;62.53;99646.06;6249467;28;20512;-36
2023/02/12 14:22:42;;;;;;;10.10;7.37;;;;;;;7.09;62.25;99638.91;6205015;28;20969;-36
2023/02/12 14:25:56;;;;;;;12.93;9.00;;;;;;;7.07;62.39;99642.72;6234088;28;20239;-36
2023/02/12 14:29:03;;;;;;;12.90;8.87;;;;;;;6.97;62.46;99651.69;6248830;28;20431;-36
2023/02/12 14:32:44;;;;;;;11.00;8.57;;;;;;;6.89;62.78;99648.25;6235138;28;20314;-36
2023/02/12 14:36:08;;;;;;;12.77;8.30;;;;;;;6.96;62.78;99643.94;6247336;28;20270;-35
2023/02/12 14:39:23;;;;;;;10.27;8.33;;;;;;;6.89;62.75;99646.41;6267994;28;20302;-35
2023/02/12 14:42:32;;;;;;;15.03;8.13;;;;;;;6.82;62.99;99657.88;6330185;28;20263;-36
2023/02/12 14:45:36;;;;;;;12.77;8.20;;;;;;;6.91;62.84;99647.09;6310973;28;20667;-36
2023/02/12 14:48:50;;;;;;;12.73;7.70;;;;;;;6.66;62.54;99627.78;6306284;28;20580;-36
2023/02/12 14:52:14;;;;;;;12.17;7.43;;;;;;;6.93;62.47;99670.75;6314864;28;20232;-35